createdAt,value
2019-02-21T00:04:54.092Z,0.98
2019-02-21T00:10:04.262Z,0.58
2019-02-21T00:15:03.447Z,0.55
2019-02-21T00:20:12.649Z,1.08
2019-02-21T00:25:21.835Z,1.27
2019-02-21T00:30:35.293Z,0.69
2019-02-21T00:35:39.968Z,1.18
2019-02-21T00:40:49.367Z,1.31
2019-02-21T00:45:58.565Z,0.91
2019-02-21T00:51:07.766Z,1.01
2019-02-21T00:56:16.957Z,0.96
2019-02-21T01:01:26.193Z,0.76
2019-02-21T01:06:35.339Z,0.95
2019-02-21T01:11:44.622Z,0.55
2019-02-21T01:16:53.791Z,0.68
2019-02-21T01:22:03.201Z,0.74
2019-02-21T01:27:12.336Z,0.51
2019-02-21T01:32:21.598Z,0.67
2019-02-21T01:37:30.860Z,0.42
2019-02-21T01:42:40.128Z,0.54
2019-02-21T01:47:49.335Z,0.65
2019-02-21T01:52:58.627Z,0.80
2019-02-21T01:58:07.834Z,0.58
2019-02-21T02:03:17.151Z,0.70
2019-02-21T02:08:26.317Z,0.79
2019-02-21T02:13:35.740Z,0.59
2019-02-21T02:18:44.895Z,0.52
2019-02-21T02:23:54.106Z,0.64
2019-02-21T02:29:03.267Z,0.79
2019-02-21T02:34:12.459Z,0.59
2019-02-21T02:39:21.621Z,0.57
2019-02-21T02:44:30.856Z,0.61
2019-02-21T02:49:40.059Z,0.51
2019-02-21T02:54:49.271Z,0.56
2019-02-21T02:59:58.503Z,0.71
2019-02-21T03:05:07.743Z,0.52
2019-02-21T03:10:16.922Z,0.71
2019-02-21T03:15:26.183Z,0.67
2019-02-21T03:20:35.519Z,0.63
2019-02-21T03:25:44.861Z,0.80
2019-02-21T03:30:54.020Z,0.75
2019-02-21T03:36:03.244Z,0.73
2019-02-21T03:41:12.420Z,0.74
2019-02-21T03:46:21.773Z,0.47
2019-02-21T03:51:30.945Z,0.59
2019-02-21T03:56:40.190Z,0.70
2019-02-21T04:01:49.509Z,0.91
2019-02-21T04:06:58.951Z,0.66
2019-02-21T04:12:08.153Z,0.72
2019-02-21T04:17:17.535Z,0.49
2019-02-21T04:22:26.819Z,0.68
2019-02-21T04:27:36.099Z,1.16
2019-02-21T04:32:45.433Z,0.79
2019-02-21T04:37:54.683Z,1.05
2019-02-21T04:43:04.035Z,0.66
2019-02-21T04:48:13.222Z,0.62
2019-02-21T04:53:22.530Z,0.72
2019-02-21T04:58:31.742Z,0.76
2019-02-21T05:03:41.047Z,0.71
2019-02-21T05:08:50.254Z,1.09
2019-02-21T05:13:59.487Z,0.97
2019-02-21T05:19:08.716Z,0.94
2019-02-21T05:24:17.970Z,0.67
2019-02-21T05:29:27.215Z,0.99
2019-02-21T05:34:36.573Z,1.06
2019-02-21T05:39:45.867Z,0.85
2019-02-21T05:44:55.146Z,0.77
2019-02-21T05:50:04.407Z,1.12
2019-02-21T05:55:13.597Z,0.93
2019-02-21T06:00:24.801Z,1.06
2019-02-21T06:05:23.937Z,1.01
2019-02-21T06:10:33.262Z,0.94
2019-02-21T06:15:42.662Z,0.76
2019-02-21T06:20:51.866Z,0.98
2019-02-21T06:26:01.562Z,1.19
2019-02-21T06:31:10.014Z,1.17
2019-02-21T06:36:19.190Z,1.09
2019-02-21T06:41:29.924Z,1.06
2019-02-21T06:46:37.596Z,1.09
2019-02-21T06:51:46.997Z,1.01
2019-02-21T06:56:56.316Z,1.32
2019-02-21T07:02:05.727Z,0.93
2019-02-21T07:07:15.009Z,1.02
2019-02-21T07:12:24.354Z,0.98
2019-02-21T07:17:33.621Z,0.89
2019-02-21T07:22:43.235Z,0.69
2019-02-21T07:27:52.519Z,0.66
2019-02-21T07:33:01.861Z,1.06
2019-02-21T07:38:11.316Z,1.07
2019-02-21T07:43:20.915Z,1.40
2019-02-21T07:48:30.128Z,1.50
2019-02-21T07:53:39.550Z,1.13
2019-02-21T07:58:48.707Z,1.07
2019-02-21T08:03:57.920Z,1.19
2019-02-21T08:09:07.087Z,1.22
2019-02-21T08:14:16.426Z,1.17
2019-02-21T08:19:25.708Z,1.22
2019-02-21T08:24:34.992Z,0.91
2019-02-21T08:29:44.437Z,1.86
2019-02-21T08:34:53.715Z,1.39
2019-02-21T08:40:03.049Z,0.97
2019-02-21T08:45:12.306Z,1.25
2019-02-21T08:50:22.497Z,1.27
2019-02-21T08:55:30.383Z,1.63
2019-02-21T09:00:39.602Z,1.36
2019-02-21T09:05:48.882Z,1.34
2019-02-21T09:10:58.318Z,1.19
2019-02-21T09:16:07.602Z,1.12
2019-02-21T09:21:16.939Z,1.10
2019-02-21T09:26:26.193Z,0.78
2019-02-21T09:31:35.533Z,1.21
2019-02-21T09:36:44.864Z,1.13
2019-02-21T09:41:54.131Z,1.25
2019-02-21T09:47:03.543Z,1.71
2019-02-21T09:52:12.911Z,1.18
2019-02-21T09:57:22.170Z,0.92
2019-02-21T10:02:31.499Z,1.06
2019-02-21T10:07:40.766Z,0.92
2019-02-21T10:12:50.217Z,0.61
2019-02-21T10:17:59.438Z,0.84
2019-02-21T10:23:08.715Z,0.58
2019-02-21T10:28:18.053Z,1.24
2019-02-21T10:33:27.412Z,0.74
2019-02-21T10:38:36.595Z,1.26
2019-02-21T10:43:46.022Z,0.94
2019-02-21T10:48:55.216Z,1.01
2019-02-21T10:54:04.635Z,1.07
2019-02-21T10:59:13.991Z,1.31
2019-02-21T11:04:23.430Z,0.74
2019-02-21T11:09:32.646Z,0.77
2019-02-21T11:14:47.602Z,0.61
2019-02-21T11:19:50.863Z,0.78
2019-02-21T11:25:00.386Z,0.79
2019-02-21T11:30:09.778Z,0.78
2019-02-21T11:35:19.217Z,0.74
2019-02-21T11:40:28.602Z,0.86
2019-02-21T11:45:37.938Z,0.87
2019-02-21T11:50:47.157Z,0.98
2019-02-21T11:55:56.730Z,0.78
2019-02-21T12:01:06.172Z,0.60
2019-02-21T12:06:15.600Z,0.94
2019-02-21T12:11:24.994Z,0.64
2019-02-21T12:16:34.371Z,0.52
2019-02-21T12:21:43.635Z,0.63
2019-02-21T12:26:52.879Z,0.42
2019-02-21T12:32:02.142Z,0.68
2019-02-21T12:37:11.428Z,0.87
2019-02-21T12:42:20.758Z,0.53
2019-02-21T12:47:30.120Z,0.74
2019-02-21T12:52:39.495Z,0.65
2019-02-21T12:57:48.882Z,0.56
2019-02-21T13:02:58.257Z,0.47
2019-02-21T13:08:07.679Z,0.62
2019-02-21T13:13:16.991Z,0.45
2019-02-21T13:18:26.235Z,0.49
2019-02-21T13:23:35.530Z,0.29
2019-02-21T13:28:44.791Z,0.41
2019-02-21T13:33:54.035Z,0.30
2019-02-21T13:39:03.402Z,0.62
2019-02-21T13:44:12.584Z,0.29
2019-02-21T13:49:21.942Z,0.69
2019-02-21T13:54:31.195Z,0.63
2019-02-21T13:59:40.479Z,0.33
2019-02-21T14:04:49.690Z,0.30
2019-02-21T14:09:59.192Z,0.56
2019-02-21T14:15:08.450Z,0.33
2019-02-21T14:20:17.844Z,0.44
2019-02-21T14:25:28.466Z,0.46
2019-02-21T14:30:36.027Z,0.51
2019-02-21T14:35:45.270Z,0.74
2019-02-21T14:40:54.735Z,0.45
2019-02-21T14:46:04.135Z,0.38
2019-02-21T14:51:13.443Z,0.65
2019-02-21T14:56:22.733Z,0.32
2019-02-21T15:01:32.183Z,0.89
2019-02-21T15:06:41.394Z,0.51
2019-02-21T15:11:50.679Z,0.61
2019-02-21T15:16:59.979Z,0.53
2019-02-21T15:22:09.308Z,0.72
2019-02-21T15:27:18.585Z,0.50
2019-02-21T15:32:28.072Z,0.52
2019-02-21T15:37:37.308Z,0.55
2019-02-21T15:42:46.686Z,0.31
2019-02-21T15:47:55.957Z,0.50
2019-02-21T15:53:05.428Z,0.40
2019-02-21T15:58:14.971Z,0.42
2019-02-21T16:03:24.319Z,0.71
2019-02-21T16:08:33.647Z,0.48
2019-02-21T16:13:43.298Z,0.50
2019-02-21T16:18:58.833Z,0.41
2019-02-21T16:23:55.838Z,0.46
2019-02-21T16:29:05.241Z,0.61
2019-02-21T16:34:14.573Z,0.50
2019-02-21T16:39:23.849Z,0.48
2019-02-21T16:44:33.849Z,0.76
2019-02-21T16:49:43.186Z,0.45
2019-02-21T16:54:52.679Z,0.67
2019-02-21T17:00:02.072Z,0.44
2019-02-21T17:05:11.334Z,0.49
2019-02-21T17:10:20.659Z,0.54
2019-02-21T17:15:30.037Z,0.29
2019-02-21T17:20:39.484Z,1.19
2019-02-21T17:25:48.872Z,0.43
2019-02-21T17:30:58.147Z,0.44
2019-02-21T17:36:07.491Z,0.64
2019-02-21T17:41:16.799Z,0.57
2019-02-21T17:46:26.326Z,0.73
2019-02-21T17:51:35.623Z,0.89
2019-02-21T17:56:45.081Z,0.62
2019-02-21T18:01:54.349Z,0.70
2019-02-21T18:07:03.809Z,0.89
2019-02-21T18:12:13.438Z,0.77
2019-02-21T18:17:23.233Z,0.65
2019-02-21T18:22:32.446Z,0.76
2019-02-21T18:27:42.035Z,0.82
2019-02-21T18:32:51.251Z,0.94
2019-02-21T18:38:00.469Z,0.94
2019-02-21T18:43:09.779Z,1.07
2019-02-21T18:48:20.939Z,1.08
2019-02-21T18:53:28.850Z,1.13
2019-02-21T18:58:38.279Z,0.81
2019-02-21T19:03:47.613Z,1.06
2019-02-21T19:08:56.810Z,1.59
2019-02-21T19:14:06.071Z,1.06
2019-02-21T19:19:15.342Z,1.67
2019-02-21T19:24:24.590Z,1.33
2019-02-21T19:29:34.040Z,1.15
2019-02-21T19:34:43.319Z,1.68
2019-02-21T19:39:52.716Z,1.13
2019-02-21T19:45:02.034Z,1.27
2019-02-21T19:50:13.547Z,1.51
2019-02-21T19:55:12.701Z,1.59
2019-02-21T20:00:22.397Z,1.09
2019-02-21T20:05:31.607Z,1.31
2019-02-21T20:10:41.003Z,1.50
2019-02-21T20:15:50.358Z,1.46
2019-02-21T20:20:59.578Z,1.25
2019-02-21T20:26:17.900Z,1.53
2019-02-21T20:31:17.900Z,1.21
2019-02-21T20:36:27.102Z,1.71
2019-02-21T20:41:36.358Z,1.19
2019-02-21T20:46:45.666Z,1.30
2019-02-21T20:51:55.027Z,1.28
2019-02-21T20:57:04.610Z,1.29
2019-02-21T21:02:14.516Z,1.48
2019-02-21T21:07:25.449Z,1.44
2019-02-21T21:12:32.539Z,1.45
2019-02-21T21:17:41.765Z,1.16
2019-02-21T21:22:51.155Z,1.01
2019-02-21T21:28:00.381Z,1.08
2019-02-21T21:33:09.651Z,1.03
2019-02-21T21:38:24.271Z,0.74
2019-02-21T21:43:27.726Z,1.12
2019-02-21T21:48:36.920Z,1.33
2019-02-21T21:53:46.223Z,1.33
2019-02-21T21:58:55.486Z,1.38
2019-02-21T22:04:04.865Z,1.03
2019-02-21T22:09:14.036Z,1.53
2019-02-21T22:14:23.369Z,1.25
2019-02-21T22:19:32.683Z,1.64
2019-02-21T22:24:41.851Z,1.73
2019-02-21T22:29:51.175Z,1.87
2019-02-21T22:35:00.338Z,1.62
2019-02-21T22:40:09.529Z,1.10
2019-02-21T22:45:18.743Z,1.20
2019-02-21T22:50:27.912Z,1.13
2019-02-21T22:55:37.247Z,1.25
2019-02-21T23:00:46.412Z,1.44
2019-02-21T23:05:56.192Z,1.11
2019-02-21T23:11:05.408Z,1.38
2019-02-21T23:16:14.770Z,1.21
2019-02-21T23:21:24.021Z,1.36
2019-02-21T23:26:33.267Z,1.32
2019-02-21T23:31:42.540Z,1.84
2019-02-21T23:36:51.783Z,1.16
2019-02-21T23:42:00.965Z,1.39
2019-02-21T23:47:10.279Z,1.44
2019-02-21T23:52:21.286Z,1.04
2019-02-21T23:57:28.243Z,0.86
